createdAt,value
2023-12-02T00:00:02.849Z,85.41
2023-12-02T00:02:38.981Z,85.00
2023-12-02T00:05:06.287Z,84.97
2023-12-02T00:07:33.497Z,85.02
2023-12-02T00:10:00.491Z,85.14
2023-12-02T00:12:27.607Z,85.23
2023-12-02T00:14:54.927Z,85.13
2023-12-02T00:17:21.963Z,84.98
2023-12-02T00:19:49.112Z,84.92
2023-12-02T00:22:16.576Z,85.13
2023-12-02T00:24:43.754Z,85.18
2023-12-02T00:27:10.824Z,84.99
2023-12-02T00:29:37.937Z,85.13
2023-12-02T00:32:05.347Z,84.95
2023-12-02T00:34:32.538Z,85.11
2023-12-02T00:36:59.445Z,85.13
2023-12-02T00:39:26.736Z,85.06
2023-12-02T00:41:53.928Z,84.99
2023-12-02T00:44:21.459Z,84.89
2023-12-02T00:46:48.498Z,84.77
2023-12-02T00:49:15.848Z,84.76
2023-12-02T00:51:42.861Z,84.79
2023-12-02T00:54:09.892Z,84.60
2023-12-02T00:56:37.563Z,84.50
2023-12-02T00:59:04.483Z,84.52
2023-12-02T01:01:31.423Z,84.40
2023-12-02T01:03:59.291Z,84.54
2023-12-02T01:06:28.678Z,84.34
2023-12-02T01:08:55.888Z,84.03
2023-12-02T01:11:23.082Z,84.03
2023-12-02T01:13:50.361Z,84.11
2023-12-02T01:16:17.408Z,83.96
2023-12-02T01:18:44.954Z,83.74
2023-12-02T01:21:11.882Z,83.98
2023-12-02T01:23:41.862Z,83.83
2023-12-02T01:26:09.195Z,83.92
2023-12-02T01:28:46.706Z,83.76
2023-12-02T01:31:13.800Z,83.67
2023-12-02T01:33:40.968Z,83.76
2023-12-02T01:36:12.671Z,83.63
2023-12-02T01:38:44.268Z,83.63
2023-12-02T01:41:11.559Z,83.51
2023-12-02T01:43:41.772Z,83.56
2023-12-02T01:46:10.704Z,83.53
2023-12-02T01:48:40.627Z,83.50
2023-12-02T01:51:08.476Z,83.39
2023-12-02T01:53:36.173Z,83.45
2023-12-02T01:56:06.403Z,83.35
2023-12-02T01:58:33.997Z,83.03
2023-12-02T02:01:05.158Z,83.25
2023-12-02T02:03:33.666Z,83.38
2023-12-02T02:06:01.259Z,83.16
2023-12-02T02:08:28.290Z,83.18
2023-12-02T02:10:59.408Z,83.06
2023-12-02T02:13:26.900Z,83.27
2023-12-02T02:15:53.868Z,83.30
2023-12-02T02:18:21.375Z,83.13
2023-12-02T02:20:53.773Z,83.04
2023-12-02T02:23:22.027Z,83.25
2023-12-02T02:25:55.066Z,83.14
2023-12-02T02:28:27.860Z,83.20
2023-12-02T02:30:55.602Z,83.16
2023-12-02T02:33:23.063Z,83.14
2023-12-02T02:35:50.041Z,83.17
2023-12-02T02:38:17.012Z,82.95
2023-12-02T02:40:44.010Z,83.04
2023-12-02T02:43:11.425Z,83.04
2023-12-02T02:45:39.251Z,83.02
2023-12-02T02:48:06.550Z,83.13
2023-12-02T02:50:34.107Z,83.06
2023-12-02T02:53:01.175Z,83.05
2023-12-02T02:55:28.349Z,82.97
2023-12-02T02:57:55.577Z,82.79
2023-12-02T03:00:28.428Z,83.01
2023-12-02T03:02:55.354Z,83.03
2023-12-02T03:05:25.256Z,82.96
2023-12-02T03:07:53.998Z,82.92
2023-12-02T03:10:21.479Z,83.21
2023-12-02T03:12:49.002Z,83.21
2023-12-02T03:15:16.068Z,83.12
2023-12-02T03:17:43.062Z,83.19
2023-12-02T03:20:10.628Z,83.19
2023-12-02T03:22:37.778Z,83.57
2023-12-02T03:25:05.209Z,83.43
2023-12-02T03:27:32.978Z,83.38
2023-12-02T03:29:59.925Z,83.31
2023-12-02T03:32:27.111Z,83.38
2023-12-02T03:34:54.038Z,83.46
2023-12-02T03:37:20.938Z,83.14
2023-12-02T03:39:47.967Z,83.02
2023-12-02T03:42:14.994Z,83.26
2023-12-02T03:44:42.158Z,83.43
2023-12-02T03:47:09.127Z,83.29
2023-12-02T03:49:36.160Z,83.37
2023-12-02T03:52:03.211Z,83.36
2023-12-02T03:54:30.198Z,83.37
2023-12-02T03:56:57.217Z,83.57
2023-12-02T03:59:24.256Z,83.58
2023-12-02T04:01:51.521Z,83.97
2023-12-02T04:04:19.546Z,83.68
2023-12-02T04:06:46.644Z,83.52
2023-12-02T04:09:13.605Z,83.46
2023-12-02T04:11:40.521Z,83.89
2023-12-02T04:14:07.942Z,84.08
2023-12-02T04:16:35.135Z,83.77
2023-12-02T04:19:02.175Z,83.85
2023-12-02T04:21:29.228Z,83.78
2023-12-02T04:23:56.262Z,83.84
2023-12-02T04:26:23.191Z,83.85
2023-12-02T04:28:50.146Z,84.21
2023-12-02T04:31:17.186Z,84.56
2023-12-02T04:33:44.683Z,84.51
2023-12-02T04:36:12.147Z,84.43
2023-12-02T04:38:39.410Z,84.38
2023-12-02T04:41:07.612Z,84.25
2023-12-02T04:43:34.879Z,84.30
2023-12-02T04:46:02.257Z,84.21
2023-12-02T04:48:29.581Z,84.13
2023-12-02T04:50:57.402Z,84.40
2023-12-02T04:53:27.907Z,84.62
2023-12-02T04:55:54.894Z,84.56
2023-12-02T04:58:22.554Z,84.79
2023-12-02T05:00:49.794Z,84.75
2023-12-02T05:03:19.186Z,84.88
2023-12-02T05:05:46.340Z,84.67
2023-12-02T05:08:16.440Z,84.74
2023-12-02T05:10:46.340Z,84.71
2023-12-02T05:13:13.364Z,84.89
2023-12-02T05:15:44.353Z,84.85
2023-12-02T05:18:14.428Z,84.84
2023-12-02T05:20:41.581Z,84.81
2023-12-02T05:23:08.720Z,84.90
2023-12-02T05:25:38.333Z,85.02
2023-12-02T05:28:16.191Z,84.79
2023-12-02T05:30:44.028Z,85.05
2023-12-02T05:33:11.314Z,84.91
2023-12-02T05:35:38.353Z,84.85
2023-12-02T05:38:08.436Z,84.93
2023-12-02T05:40:35.342Z,84.99
2023-12-02T05:43:02.277Z,84.77
2023-12-02T05:45:29.268Z,85.00
2023-12-02T05:47:59.425Z,85.01
2023-12-02T05:50:28.596Z,84.90
2023-12-02T05:52:55.584Z,84.85
2023-12-02T05:55:22.910Z,84.66
2023-12-02T05:57:52.192Z,85.10
2023-12-02T06:00:19.703Z,85.25
2023-12-02T06:02:46.717Z,85.18
2023-12-02T06:05:17.975Z,85.38
2023-12-02T06:07:44.951Z,85.48
2023-12-02T06:10:13.078Z,85.40
2023-12-02T06:12:40.079Z,85.74
2023-12-02T06:15:08.484Z,85.74
2023-12-02T06:17:36.066Z,85.80
2023-12-02T06:20:07.500Z,86.08
2023-12-02T06:22:38.160Z,86.14
2023-12-02T06:25:09.058Z,86.18
2023-12-02T06:27:36.326Z,86.16
2023-12-02T06:30:03.451Z,86.54
2023-12-02T06:32:35.214Z,86.25
2023-12-02T06:35:05.852Z,86.42
2023-12-02T06:37:33.316Z,86.26
2023-12-02T06:40:02.722Z,86.27
2023-12-02T06:42:29.862Z,86.16
2023-12-02T06:44:57.051Z,86.27
2023-12-02T06:47:23.980Z,86.23
2023-12-02T06:49:50.826Z,86.21
2023-12-02T06:52:17.797Z,86.25
2023-12-02T06:54:44.691Z,86.29
2023-12-02T06:57:11.787Z,86.27
2023-12-02T06:59:38.798Z,86.43
2023-12-02T07:02:05.728Z,86.38
2023-12-02T07:04:33.539Z,86.33
2023-12-02T07:07:00.735Z,86.58
2023-12-02T07:09:27.733Z,86.55
2023-12-02T07:11:54.976Z,86.18
2023-12-02T07:14:21.864Z,86.23
2023-12-02T07:16:48.793Z,86.34
2023-12-02T07:19:15.843Z,86.08
2023-12-02T07:21:42.813Z,86.11
2023-12-02T07:24:10.741Z,85.92
2023-12-02T07:26:37.986Z,86.19
2023-12-02T07:29:05.084Z,86.08
2023-12-02T07:31:31.986Z,85.96
2023-12-02T07:34:21.790Z,86.15
2023-12-02T07:36:47.116Z,86.03
2023-12-02T07:39:16.088Z,85.97
2023-12-02T07:41:47.265Z,85.87
2023-12-02T07:44:14.265Z,85.87
2023-12-02T07:46:41.168Z,85.99
2023-12-02T07:49:08.165Z,86.10
2023-12-02T07:51:35.072Z,86.10
2023-12-02T07:54:02.162Z,86.17
2023-12-02T07:56:29.021Z,85.81
2023-12-02T07:58:58.332Z,86.08
2023-12-02T08:01:26.420Z,86.10
2023-12-02T08:03:53.456Z,85.99
2023-12-02T08:06:20.678Z,85.97
2023-12-02T08:08:48.687Z,86.05
2023-12-02T08:11:17.176Z,85.88
2023-12-02T08:13:45.902Z,85.84
2023-12-02T08:16:13.277Z,85.93
2023-12-02T08:18:40.233Z,86.04
2023-12-02T08:21:08.866Z,86.05
2023-12-02T08:23:36.358Z,86.13
2023-12-02T08:26:03.324Z,86.40
2023-12-02T08:28:30.625Z,86.37
2023-12-02T08:30:57.608Z,86.43
2023-12-02T08:33:24.472Z,86.39
2023-12-02T08:35:51.646Z,86.46
2023-12-02T08:38:18.761Z,86.62
2023-12-02T08:40:45.701Z,86.63
2023-12-02T08:43:12.837Z,86.55
2023-12-02T08:45:40.272Z,86.68
2023-12-02T08:48:07.585Z,86.43
2023-12-02T08:50:35.219Z,86.47
2023-12-02T08:53:02.155Z,86.77
2023-12-02T08:55:29.384Z,86.37
2023-12-02T08:57:59.320Z,86.40
2023-12-02T09:00:26.796Z,86.33
2023-12-02T09:02:54.040Z,86.29
2023-12-02T09:05:21.156Z,86.20
2023-12-02T09:07:48.224Z,86.65
2023-12-02T09:10:15.553Z,86.72
2023-12-02T09:12:43.342Z,86.62
2023-12-02T09:15:36.333Z,86.39
2023-12-02T09:18:12.837Z,86.42
2023-12-02T09:20:55.307Z,86.37
2023-12-02T09:23:22.718Z,86.41
2023-12-02T09:25:52.457Z,86.47
2023-12-02T09:28:23.636Z,86.40
2023-12-02T09:31:07.639Z,86.50
2023-12-02T09:33:37.934Z,86.49
2023-12-02T09:36:08.764Z,86.57
2023-12-02T09:38:36.063Z,86.63
2023-12-02T09:41:50.310Z,86.70
2023-12-02T09:44:28.180Z,86.56
2023-12-02T09:47:08.602Z,86.62
2023-12-02T09:49:52.340Z,86.41
2023-12-02T09:52:30.182Z,86.81
2023-12-02T09:55:15.573Z,86.71
2023-12-02T09:57:57.900Z,86.77
2023-12-02T10:00:45.341Z,86.64
2023-12-02T10:03:41.428Z,86.94
2023-12-02T10:06:46.541Z,87.05
2023-12-02T10:09:32.503Z,86.91
2023-12-02T10:12:25.822Z,86.71
2023-12-02T10:15:07.246Z,87.01
2023-12-02T10:18:00.734Z,87.15
2023-12-02T10:20:44.706Z,86.99
2023-12-02T10:23:20.915Z,86.99
2023-12-02T10:26:01.599Z,86.88
2023-12-02T10:28:38.480Z,87.05
2023-12-02T10:31:07.272Z,87.04
2023-12-02T10:33:58.659Z,86.84
2023-12-02T10:36:28.594Z,86.95
2023-12-02T10:39:13.242Z,86.88
2023-12-02T10:41:50.726Z,86.89
2023-12-02T10:44:23.311Z,87.12
2023-12-02T10:46:50.846Z,87.08
2023-12-02T10:49:18.695Z,87.04
2023-12-02T10:51:46.305Z,86.94
2023-12-02T10:54:16.759Z,87.14
2023-12-02T10:56:47.332Z,87.07
2023-12-02T10:59:18.550Z,87.16
2023-12-02T11:01:48.063Z,87.21
2023-12-02T11:04:18.853Z,87.22
2023-12-02T11:06:55.346Z,87.28
2023-12-02T11:09:39.150Z,87.11
2023-12-02T11:12:24.608Z,87.45
2023-12-02T11:15:05.061Z,87.52
2023-12-02T11:17:42.416Z,87.72
2023-12-02T11:20:20.102Z,87.71
2023-12-02T11:23:00.646Z,87.91
2023-12-02T11:25:55.359Z,87.72
2023-12-02T11:28:41.214Z,88.03
2023-12-02T11:31:26.606Z,87.92
2023-12-02T11:34:07.304Z,88.10
2023-12-02T11:36:47.390Z,88.10
2023-12-02T11:39:40.824Z,88.24
2023-12-02T11:42:20.918Z,88.09
2023-12-02T11:45:14.715Z,88.34
2023-12-02T11:48:17.495Z,88.31
2023-12-02T11:50:56.716Z,88.27
2023-12-02T11:54:01.461Z,88.11
2023-12-02T11:56:28.789Z,88.05
2023-12-02T11:59:00.299Z,88.20
2023-12-02T12:01:45.766Z,88.22
2023-12-02T12:04:36.356Z,88.11
2023-12-02T12:07:09.925Z,87.97
2023-12-02T12:10:00.275Z,88.17
2023-12-02T12:12:28.535Z,88.19
2023-12-02T12:14:56.030Z,88.10
2023-12-02T12:17:24.490Z,88.25
2023-12-02T12:19:51.885Z,88.43
2023-12-02T12:22:18.836Z,88.34
2023-12-02T12:24:45.765Z,88.50
2023-12-02T12:27:15.374Z,88.35
2023-12-02T12:29:57.367Z,88.56
2023-12-02T12:32:24.484Z,88.73
2023-12-02T12:34:57.855Z,88.57
2023-12-02T12:37:25.048Z,88.66
2023-12-02T12:39:52.115Z,88.67
2023-12-02T12:42:22.521Z,88.58
2023-12-02T12:44:49.512Z,88.55
2023-12-02T12:47:16.620Z,88.71
2023-12-02T12:49:46.680Z,88.80
2023-12-02T12:55:09.805Z,89.08
2023-12-02T12:57:59.923Z,89.05
2023-12-02T13:00:29.778Z,89.23
2023-12-02T13:03:05.715Z,89.20
2023-12-02T13:05:42.270Z,89.22
2023-12-02T13:08:24.416Z,89.15
2023-12-02T13:10:54.587Z,89.15
2023-12-02T13:13:22.094Z,89.43
2023-12-02T13:15:50.779Z,89.44
2023-12-02T13:18:22.786Z,89.46
2023-12-02T13:22:11.321Z,89.36
2023-12-02T13:29:21.627Z,89.64
2023-12-02T13:35:31.968Z,89.82
2023-12-02T13:38:21.255Z,89.79
2023-12-02T13:41:14.993Z,89.82
2023-12-02T13:43:53.989Z,90.09
2023-12-02T13:46:28.485Z,89.98
2023-12-02T13:49:08.150Z,89.96
2023-12-02T13:51:42.963Z,90.16
2023-12-02T13:54:38.870Z,90.18
2023-12-02T13:57:25.494Z,90.24
2023-12-02T14:00:04.544Z,90.48
2023-12-02T14:02:48.148Z,90.35
2023-12-02T14:05:29.968Z,90.68
2023-12-02T14:08:02.338Z,90.72
2023-12-02T14:10:30.572Z,90.62
2023-12-02T14:13:17.328Z,90.71
2023-12-02T14:16:04.229Z,90.70
2023-12-02T14:18:52.314Z,91.07
2023-12-02T14:21:41.205Z,91.02
2023-12-02T14:24:40.405Z,91.04
2023-12-02T14:27:26.434Z,91.06
2023-12-02T14:29:59.009Z,91.08
2023-12-02T14:33:06.568Z,91.18
2023-12-02T14:35:48.394Z,91.28
2023-12-02T14:38:32.389Z,91.18
2023-12-02T14:41:22.526Z,91.49
2023-12-02T14:44:12.020Z,91.30
2023-12-02T14:47:14.676Z,91.59
2023-12-02T14:49:49.344Z,91.68
2023-12-02T14:52:20.904Z,91.61
2023-12-02T14:54:48.260Z,91.47
2023-12-02T14:57:20.703Z,91.60
2023-12-02T14:59:54.552Z,91.66
2023-12-02T15:02:51.212Z,91.63
2023-12-02T15:05:18.357Z,91.88
2023-12-02T15:07:47.458Z,91.92
2023-12-02T15:10:28.718Z,91.97
2023-12-02T15:13:14.520Z,92.02
2023-12-02T15:15:43.028Z,92.40
2023-12-02T15:18:18.205Z,92.29
2023-12-02T15:20:50.636Z,92.32
2023-12-02T15:23:17.441Z,92.43
2023-12-02T15:25:46.904Z,92.36
2023-12-02T15:28:21.419Z,92.58
2023-12-02T15:30:48.657Z,92.56
2023-12-02T15:33:16.961Z,92.61
2023-12-02T15:35:45.060Z,92.68
2023-12-02T15:38:12.908Z,92.95
2023-12-02T15:40:40.577Z,92.77
2023-12-02T15:43:08.053Z,92.63
2023-12-02T15:45:36.294Z,92.88
2023-12-02T15:48:03.446Z,92.74
2023-12-02T15:50:30.493Z,92.80
2023-12-02T15:52:57.657Z,92.71
2023-12-02T15:55:24.946Z,92.85
2023-12-02T15:57:51.816Z,92.92
2023-12-02T16:00:18.924Z,93.03
2023-12-02T16:02:46.631Z,92.95
2023-12-02T16:05:14.055Z,93.19
2023-12-02T16:07:42.149Z,93.11
2023-12-02T16:10:15.562Z,93.13
2023-12-02T16:12:44.582Z,93.19
2023-12-02T16:15:11.737Z,93.23
2023-12-02T16:17:42.791Z,93.22
2023-12-02T16:21:20.598Z,93.25
2023-12-02T16:25:27.286Z,93.55
2023-12-02T16:27:54.676Z,93.46
2023-12-02T16:30:22.239Z,93.99
2023-12-02T16:32:49.378Z,93.62
2023-12-02T16:35:18.299Z,93.49
2023-12-02T16:37:46.939Z,93.57
2023-12-02T16:40:13.993Z,93.44
2023-12-02T16:42:41.359Z,93.47
2023-12-02T16:45:23.020Z,93.44
2023-12-02T16:47:53.770Z,93.52
2023-12-02T16:50:23.567Z,93.47
2023-12-02T16:53:19.087Z,93.60
2023-12-02T16:55:48.344Z,93.35
2023-12-02T16:58:16.324Z,93.49
2023-12-02T17:00:46.182Z,93.50
2023-12-02T17:03:37.607Z,93.56
2023-12-02T17:06:16.159Z,93.38
2023-12-02T17:08:46.686Z,93.30
2023-12-02T17:11:15.610Z,93.54
2023-12-02T17:14:01.349Z,93.57
2023-12-02T17:16:32.438Z,93.57
2023-12-02T17:19:00.776Z,93.40
2023-12-02T17:21:37.958Z,93.42
2023-12-02T17:24:09.327Z,93.57
2023-12-02T17:26:36.372Z,93.50
2023-12-02T17:29:03.343Z,93.31
2023-12-02T17:31:31.103Z,93.55
2023-12-02T17:33:58.129Z,93.66
2023-12-02T17:36:25.178Z,93.39
2023-12-02T17:38:53.100Z,93.54
2023-12-02T17:41:20.031Z,93.55
2023-12-02T17:43:46.955Z,93.70
2023-12-02T17:46:14.194Z,93.81
2023-12-02T17:48:41.864Z,93.63
2023-12-02T17:51:10.662Z,93.73
2023-12-02T17:53:38.520Z,93.61
2023-12-02T17:56:06.031Z,93.57
2023-12-02T17:58:33.042Z,93.70
2023-12-02T18:01:00.852Z,93.78
2023-12-02T18:03:27.882Z,93.59
2023-12-02T18:05:55.950Z,93.75
2023-12-02T18:08:23.111Z,93.88
2023-12-02T18:10:51.844Z,93.74
2023-12-02T18:13:18.857Z,93.89
2023-12-02T18:15:48.403Z,93.72
2023-12-02T18:18:15.763Z,93.75
2023-12-02T18:20:45.220Z,93.67
2023-12-02T18:23:12.434Z,93.82
2023-12-02T18:25:39.283Z,93.86
2023-12-02T18:28:06.142Z,93.88
2023-12-02T18:30:33.136Z,93.78
2023-12-02T18:33:00.439Z,93.69
2023-12-02T18:35:27.504Z,93.90
2023-12-02T18:37:54.384Z,93.65
2023-12-02T18:40:23.467Z,93.54
2023-12-02T18:42:51.018Z,93.81
2023-12-02T18:45:18.024Z,93.59
2023-12-02T18:47:45.297Z,93.72
2023-12-02T18:50:12.277Z,93.75
2023-12-02T18:52:39.452Z,93.61
2023-12-02T18:55:06.615Z,93.76
2023-12-02T18:57:37.216Z,93.79
2023-12-02T19:00:07.202Z,93.95
2023-12-02T19:02:34.908Z,93.65
2023-12-02T19:05:03.987Z,93.76
2023-12-02T19:07:32.153Z,93.73
2023-12-02T19:09:59.309Z,93.73
2023-12-02T19:12:26.234Z,93.88
2023-12-02T19:14:53.176Z,93.86
2023-12-02T19:17:20.307Z,93.61
2023-12-02T19:19:55.042Z,93.72
2023-12-02T19:22:22.293Z,93.92
2023-12-02T19:24:52.160Z,93.80
2023-12-02T19:27:19.188Z,93.68
2023-12-02T19:29:46.229Z,93.64
2023-12-02T19:32:13.260Z,93.74
2023-12-02T19:34:40.663Z,93.55
2023-12-02T19:37:08.081Z,93.74
2023-12-02T19:39:40.152Z,93.62
2023-12-02T19:42:09.264Z,93.54
2023-12-02T19:44:37.097Z,93.62
2023-12-02T19:47:06.368Z,93.79
2023-12-02T19:49:35.037Z,93.74
2023-12-02T19:52:03.364Z,93.83
2023-12-02T19:54:34.276Z,93.64
2023-12-02T19:57:01.263Z,93.82
2023-12-02T19:59:29.283Z,93.71
2023-12-02T20:01:56.665Z,93.71
2023-12-02T20:04:24.120Z,93.82
2023-12-02T20:06:51.307Z,93.64
2023-12-02T20:09:19.356Z,93.68
2023-12-02T20:11:46.731Z,93.76
2023-12-02T20:14:18.053Z,93.79
2023-12-02T20:16:45.668Z,93.87
2023-12-02T20:19:13.779Z,93.82
2023-12-02T20:21:43.269Z,93.72
2023-12-02T20:24:12.462Z,93.79
2023-12-02T20:26:39.723Z,93.86
2023-12-02T20:29:06.765Z,93.88
2023-12-02T20:31:33.747Z,93.83
2023-12-02T20:34:00.683Z,93.79
2023-12-02T20:36:27.635Z,93.71
2023-12-02T20:38:54.563Z,94.05
2023-12-02T20:41:21.606Z,93.91
2023-12-02T20:43:49.057Z,93.84
2023-12-02T20:46:16.162Z,93.88
2023-12-02T20:48:45.247Z,94.01
2023-12-02T20:51:12.393Z,94.11
2023-12-02T20:53:40.636Z,93.76
2023-12-02T20:56:08.369Z,93.94
2023-12-02T20:58:35.324Z,94.09
2023-12-02T21:01:04.143Z,93.95
2023-12-02T21:03:31.332Z,93.81
2023-12-02T21:05:58.624Z,93.94
2023-12-02T21:08:28.205Z,93.90
2023-12-02T21:10:55.326Z,93.75
2023-12-02T21:13:22.512Z,94.12
2023-12-02T21:15:49.904Z,93.98
2023-12-02T21:18:17.055Z,93.93
2023-12-02T21:20:44.107Z,93.90
2023-12-02T21:23:11.441Z,93.98
2023-12-02T21:25:39.917Z,93.74
2023-12-02T21:28:10.894Z,93.83
2023-12-02T21:30:39.537Z,93.92
2023-12-02T21:33:08.383Z,93.93
2023-12-02T21:35:37.375Z,94.02
2023-12-02T21:38:06.322Z,93.75
2023-12-02T21:40:34.714Z,93.86
2023-12-02T21:46:07.091Z,94.07
2023-12-02T21:48:41.613Z,93.86
2023-12-02T21:51:30.548Z,93.93
2023-12-02T21:54:00.193Z,94.13
2023-12-02T21:56:27.696Z,94.06
2023-12-02T21:59:10.044Z,94.08
2023-12-02T22:01:41.287Z,94.09
2023-12-02T22:04:12.568Z,93.94
2023-12-02T22:06:52.861Z,94.03
2023-12-02T22:09:28.967Z,94.02
2023-12-02T22:11:57.297Z,94.11
2023-12-02T22:14:26.138Z,94.21
2023-12-02T22:17:01.531Z,94.27
2023-12-02T22:19:29.111Z,94.14
2023-12-02T22:21:56.573Z,94.29
2023-12-02T22:24:24.312Z,94.19
2023-12-02T22:26:51.943Z,94.30
2023-12-02T22:29:28.505Z,94.34
2023-12-02T22:31:57.437Z,94.45
2023-12-02T22:34:24.654Z,94.27
2023-12-02T22:36:52.998Z,94.29
2023-12-02T22:39:24.208Z,94.24
2023-12-02T22:41:53.406Z,94.48
2023-12-02T22:44:28.617Z,94.39
2023-12-02T22:46:59.238Z,94.36
2023-12-02T22:49:36.401Z,94.59
2023-12-02T22:52:03.855Z,94.51
2023-12-02T22:54:33.865Z,94.56
2023-12-02T22:57:02.932Z,94.62
2023-12-02T22:59:31.440Z,94.75
2023-12-02T23:01:58.563Z,94.56
2023-12-02T23:04:44.841Z,94.57
2023-12-02T23:07:12.036Z,94.67
2023-12-02T23:09:48.233Z,94.61
2023-12-02T23:12:33.433Z,94.67
2023-12-02T23:15:03.678Z,94.87
2023-12-02T23:17:31.820Z,94.70
2023-12-02T23:20:04.320Z,94.74
2023-12-02T23:22:33.157Z,94.73
2023-12-02T23:25:00.774Z,94.95
2023-12-02T23:27:44.695Z,94.73
2023-12-02T23:30:20.682Z,94.81
2023-12-02T23:32:48.660Z,94.95
2023-12-02T23:35:22.287Z,94.94
2023-12-02T23:37:52.493Z,94.91
2023-12-02T23:40:24.824Z,95.02
2023-12-02T23:42:52.250Z,95.23
2023-12-02T23:45:21.080Z,95.04
2023-12-02T23:47:49.459Z,94.94
2023-12-02T23:50:19.601Z,95.00
2023-12-02T23:52:46.958Z,94.97
2023-12-02T23:55:14.194Z,95.20
2023-12-02T23:57:46.046Z,95.23
